Aviation Digital Data Service (ADDS)

Output produced by METARs form (0600 UTC 19 March 2019)
found at http://www.aviationweather.gov/metar/data/
 
YPAD 190530Z 23011KT CAVOK 25/15 Q1013 NOSIG
TAF YPAD 190503Z 1906/2012 22012KT CAVOK 
     FM191000 VRB03KT CAVOK 
     FM200100 26008KT CAVOK 
     FM200400 23012KT CAVOK 
     FM200900 VRB05KT CAVOK
       
YABA 190500Z 14008KT 9999 FEW070 SCT100 FEW080CB 25/18 Q1011
YMAY 190500Z AUTO 29005KT 260V320 9999 // NCD 32/13 Q1011
YBAS 190530Z AUTO 10015KT 9999 // NCD 36/02 Q1011 RF00.0/000.0
TAF YBAS 190501Z 1906/2006 12014KT CAVOK 
     FM191000 10007KT CAVOK 
     FM191500 31005KT CAVOK 
     FM200000 12012KT CAVOK
       
YAMB 190530Z 01007KT 330V040 CAVOK 34/13 Q1007 NOSIG
TAF YAMB 190513Z 1906/1924 02008KT 9999 FEW050 SCT080 
     FM191100 05006KT 9999 FEW040 
     FM191600 VRB02KT 9999 MIFG FEW010 
     FM192300 30006KT 9999 FEW035 
     PROB40 1916/1922 0800 FG SCT001
       
YARG 190500Z AUTO 04003KT 9999 // NCD 37/18 Q1006
YMAV 190530Z AUTO 19017KT 9999 // BKN014 OVC031 21/17 Q1015
TAF AMD YMAV 190508Z 1906/2006 15013KT 9999 -DZ SCT012 BKN020 
     FM190700 16010KT 9999 -DZ BKN012 
     BECMG 1923/2001 16008KT 9999 SCT015 BKN020 
     TEMPO 1906/1911 4000 DZ BKN010 
     TEMPO 1911/1919 4000 DZ BKN005 
     TEMPO 1919/2004 8000 -DZ BKN012
       
YAYE 190500Z AUTO 08011G21KT 9999 // NCD 38/M00 Q1011
YBNA 190500Z AUTO 05011KT 9999 // NCD 27/// Q1008
YBDV 190500Z AUTO 20013KT //// // ////// 38/08 Q1008
YBBN 190530Z 03013KT CAVOK 29/21 Q1008 NOSIG
TAF AMD YBBN 190509Z 1906/2012 03011KT 9999 FEW040 
     FM191100 34008KT 9999 FEW015 
     FM191600 19006KT 9999 MIFG FEW015 
     FM192200 22005KT 9999 FEW025 
     FM200100 05010KT 9999 FEW035 
     FM200900 02007KT 9999 SCT020
       
YBHI 190500Z AUTO 26011KT 9999 // NCD 34/04 Q1012
YBRM 190530Z 20007KT CAVOK 33/24 Q1005
TAF AMD YBRM 190504Z 1906/2006 34010KT CAVOK 
     FM191600 03008KT CAVOK 
     FM200400 26010KT CAVOK 
     PROB30 
     TEMPO 1909/1914 VRB25G45KT 2000 TSRA SCT030 SCT080CB
       
YBUD 190500Z AUTO 04013KT 9999 // SCT025 SCT097 30/22 Q1009
YBCS 190530Z AUTO 09013KT 9999 // SCT030 SCT040 BKN110 30/24 Q1007 RMK RF00.0/000.6 INTER 0800/0830 10015G25KT 4000 SHRA BKN015
TAF AMD YBCS 190516Z 1905/2006 13012KT 9999 -SHRA SCT020 BKN035 INTER 1908/1912
10015G25KT 4000 SHRA BKN015 
     TEMPO 1912/2006 10015G25KT 2000 SHRA SCT008 BKN015
       
YSCB 190530Z AUTO 13009KT 9999 // OVC090 23/15 Q1014 RMK RF00.0/000.2 INTER 0600/0830 5000 SHRA BKN020
TAF AMD YSCB 190532Z 1906/2006 13014KT 9999 -SHRA SCT035 BKN050 
     FM191100 15006KT 9999 SCT020 
     FM200300 11008KT 9999 -SHRA SCT045 INTER 1906/1910 5000 SHRA BKN020 
     TEMPO 1913/1921 9999 BKN020 
     PROB30 INTER 1906/1908 VRB15G25KT 3000 TSRA BKN018 SCT040CB 
     PROB30 INTER 2004/2006 VRB15G25KT 3000 TSRA BKN018 SCT045CB
       
YCAR 190500Z AUTO 21016KT 9999 // NCD 28/20 Q1010
YCAS 190500Z AUTO 15008KT //// // ////// 28/16 Q1008
YCDU 190500Z AUTO 19014KT 9999 // NCD 23/14 Q1015
YBCV 190500Z AUTO 30008KT 280V040 9999 // SCT100 36/08 Q1009
YCCY 190500Z AUTO 11011KT 060V120 9999 // BKN093 38/12 Q1006
YCBA 190500Z AUTO 23011KT 9999 // NCD 33/05 Q1010
YCBP 190500Z AUTO 20011KT 190V250 9999 // NCD 35/07 Q1013
YBCG 190530Z AUTO 04008KT 9999 // NCD 26/21 Q1009 RF00.0/000.0
TAF YBCG 190508Z 1906/2006 03010KT 9999 FEW030 
     FM191000 34008KT 9999 SCT020 
     FM191800 19007KT 9999 SCT015 
     FM200000 07010KT 9999 FEW035 
     FM200500 15013KT 9999 -SHRA SCT020 BKN035 
     PROB30 
     TEMPO 1906/1909 VRB20G35KT 2000 TSRA BKN012 SCT035CB 
     PROB30 
     TEMPO 2005/2006 VRB25G40KT 1000 TSRA BKN010 SCT035CB
       
YCOM 190530Z AUTO 11007KT 1100 // SCT018 SCT027 BKN037 16/15 Q1016
YCBB 190500Z AUTO 17011KT 9999 // SCT054 27/11 Q1012
YCNM 190500Z AUTO 19012KT //// // ////// 32/12 Q1009
YCIN 190530Z AUTO 01008KT 9999 // NCD 35/23 Q1005 RF00.0/000.0
TAF AMD YCIN 190004Z 1900/1914 01010KT CAVOK 
     FM190800 34010KT CAVOK 
     PROB30 
     TEMPO 1907/1914 VRB25G45KT 2000 TSRA SCT020 SCT060CB
       
YPDN 190530Z 29016KT 9999 FEW030 BKN400 34/24 Q1006 NOSIG
TAF YPDN 190501Z 1906/2012 28012KT 9999 SCT030 
     FM190900 26007KT 9999 SCT020 
     FM200300 26012KT 9999 SCT025
       
YDBY 190500Z AUTO 02009KT //// // SCT036 34/25 Q1005
YSDU 190530Z AUTO 16008KT 9999 // SCT081 29/12 Q1010 RF00.0/000.0
TAF YSDU 190500Z 1906/1924 16010KT CAVOK 
     BECMG 1911/1913 10006KT CAVOK
       
YEML 190500Z AUTO 08009KT 9999 // NCD 34/18 Q1009
YESP 190500Z AUTO 34006KT 300V050 9999 // NCD 32/14 Q1013
YFRT 190530Z AUTO 13015KT //// // NCD 29/12 Q1014 RF00.0/000.0
TAF YFRT 190042Z 1902/1914 11014KT CAVOK
       
YGEL 190530Z 23012KT 9999 BKN021 25/19 Q1010
TAF AMD YGEL 190422Z 1904/1924 23014KT 9999 SCT020 
     FM191000 20010KT 9999 BKN020 
     FM191600 18005KT 9999 BKN016
       
YGLA 190530Z AUTO 04010KT 9999 // NCD 30/21 Q1009 RF00.0/000.0
TAF YGLA 190529Z 1906/1918 04012KT 9999 FEW025 
     FM190900 02004KT 9999 SCT018 
     FM191400 22003KT 9999 SCT018 
     FM191600 25003KT 9999 MIFG SCT015 
     PROB30 
     TEMPO 1906/1909 VRB20G40KT 2000 TSRA BKN010 SCT030CB
       
YPGV 190535Z AUTO 04009KT 9999 // SCT045 SCT051 BKN092 33/24 Q1005
TAF AMD YPGV 190057Z 1902/1914 16010KT 9999 SCT025 
     PROB30 
     TEMPO 1910/1914 VRB25G35KT 1000 TSRA BKN010 SCT020CB
       
YGFN 190527Z AUTO 14015G25KT 9999 // NCD 25/17 Q1008
YGTH 190500Z AUTO 13007KT 100V160 9999 // NCD 32/12 Q1011
YGTE 190500Z AUTO 24007KT 210V270 9999 // NCD 34/24 Q1004
YBHM 190530Z AUTO 10013KT 9999 // OVC125 28/24 Q1009 RF00.0/000.0
TAF YBHM 190527Z 1906/1918 11014KT 9999 SCT020
       
YMHB 190530Z 10007KT 9999 FEW015 BKN035 21/14 Q1018 RF00.0/000.0
TAF AMD YMHB 190547Z 1906/2006 13010KT 9999 FEW020 BKN035 
     FM190700 11008KT 9999 -SHRA SCT010 BKN020 
     FM191000 16003KT 9999 -SHRA SCT005 BKN010 
     FM192200 32005KT 9999 FEW010 BKN020 
     FM200200 15008KT 9999 SCT020 
     TEMPO 1911/1921 4000 SHRA BKN005
       
YHID 190537Z AUTO 30015G25KT 9999 +RA SCT014 SCT020 28/24 Q1004
TAF YHID 190502Z 1906/2006 28012KT 9999 -SHRA SCT018 BKN030 
     TEMPO 1906/2006 3000 SHRA BKN012 
     PROB30 
     TEMPO 1906/2006 VRB20G30KT 0800 TSRA BKN008 SCT015CB
       
YHUG 190500Z AUTO 09010KT 9999 // BKN071 BKN098 35/14 Q1008
YPKG 190530Z AUTO 09005KT 050V170 //// // NCD 31/13 Q1013 RF00.0/000.0 PRESENT WEATHER SENSOR US
TAF YPKG 190503Z 1906/2006 09010KT CAVOK 
     FM192000 05008KT CAVOK 
     PROB30 INTER 1911/1917 VRB25G40KT 2000 TSRA SCT070 FEW090CB 
     PROB30 INTER 2005/2006 VRB25G40KT 2000 TSRA SCT070 FEW100CB
       
YKRY 190500Z AUTO 23009KT 190V280 9999 // NCD 30/10 Q1011
YPKU 190530Z AUTO 29010KT 9999 // SCT064 38/21 Q1005 RF00.0/000.0
TAF YPKU 190006Z 1902/1914 03005KT CAVOK 
     FM190900 35010KT CAVOK 
     PROB30 INTER 1905/1914 VRB20G40KT 3000 TSRA SCT030 SCT080CB
       
YMLT 190538Z AUTO 16007KT 9999 -SHRA SCT016 BKN044 OVC069 20/16 Q1017
TAF AMD YMLT 190520Z 1905/2006 15012KT 9999 -SHRA FEW020 BKN040 
     FM190600 15014KT 9999 -SHRA FEW020 BKN040 
     FM191400 16008KT 9999 BKN010 
     FM192200 15012KT 9999 SCT020 BKN030 
     FM200300 16006KT 9999 SCT030 INTER 1905/1911 4000 SCT010 BKN020
       
YPLM 190530Z AUTO 22015KT //// // NCD 36/17 Q1008 RF00.0/000.0 PRESENT WEATHER SENSOR US
TAF YPLM 190503Z 1906/2006 24016KT CAVOK 
     FM191500 20012KT CAVOK
       
YLEC 190500Z AUTO 23006KT //// // ////// 35/04 Q1012
YLIS 190500Z AUTO 09004KT 9999 // BKN110 BKN125 31/14 Q1007
YLRE 190500Z AUTO 35004KT 9999 // NCD 38/15 Q1007
YBMK 190500Z AUTO 07010KT 9999 // BKN120 30/24 Q1009
YMEK 190500Z AUTO 34006KT 300V060 9999 // SCT120 35/13 Q1011
YMEN 190500Z AUTO 21015KT 9999 // BKN018 24/18 Q1014
YMML 190530Z 18013KT 9999 FEW016 BKN019 BKN027 22/17 Q1014 NOSIG
TAF AMD YMML 190508Z 1906/2012 19012KT 9999 FEW020 BKN030 
     FM190900 19008KT 9999 -DZ FEW010 BKN016 
     FM191200 20008KT 9999 -DZ BKN010 
     BECMG 1922/1924 20008KT 9999 FEW010 BKN018 
     FM200200 21008KT 9999 FEW020 SCT030 
     BECMG 2009/2011 23008KT 9999 -DZ BKN010 
     TEMPO 1911/1924 5000 DZ BKN005 
     TEMPO 2009/2012 5000 DZ BKN005
       
YMER 190500Z AUTO 13007KT 9999 // SCT125 23/21 Q1013
YMIA 190500Z AUTO 18009KT 9999 // NCD 33/06 Q1011
YMOR 190500Z AUTO 24013KT 9999 // BKN100 33/06 Q1009
YMTG 190500Z AUTO 13010KT 9999 // SCT037 26/15 Q1015
YBMA 190530Z AUTO 04008KT 030V090 9999 // NCD 38/09 Q1007 RF00.0/000.0
TAF YBMA 190431Z 1906/1918 10007KT CAVOK
       
YMDG 190500Z AUTO 13006KT 090V200 9999 // BKN078 26/13 Q1012
YNBR 190500Z AUTO 14007KT 9999 // BKN093 32/10 Q1008
YNAR 190500Z AUTO 23006KT 180V280 9999 // BKN071 33/11 Q1011
YNWN 190500Z AUTO 05006KT 340V140 9999 // NCD 36/12 Q1010
YNTN 190500Z AUTO 09007KT 070V130 9999 // SCT054 BKN097 34/20 Q1004
YSNW 190500Z 16012KT 9999 BKN025 25/19 Q1012 INTER 0500/0800 4000 SHRA SCT005 BKN010
YBOK 190500Z 30010KT 250V310 CAVOK 31/13 Q1011 NOSIG
YOLD 190500Z AUTO 26008KT 180V270 9999 // NCD 35/11 Q1011
TAF YOLD 182351Z 1902/1914 21012KT CAVOK 
     FM191200 18008KT CAVOK
       
YPBO 190500Z AUTO 34008KT 300V360 9999 // ////// 38/12 Q1009
YPEA 190530Z 32007KT CAVOK 36/12 Q1008 FM0600 24014KT CAVOK INTER 0600/0800 VRB20G30KT 3000 TSRA BKN080 FEW070CB
TAF AMD YPEA 190447Z 1906/1924 24014KT CAVOK 
     FM191200 VRB03KT CAVOK 
     FM191800 02003KT 9999 BKN005 INTER 1906/1908 VRB20G35KT 3000 TSRA BKN080
FEW070CB 
     PROB30 INTER 1908/1910 VRB20G35KT 3000 TSRA BKN080 FEW070CB
       
YPPH 190530Z 27009KT 240V320 CAVOK 35/18 Q1008 NOSIG
TAF YPPH 190506Z 1906/2012 24010KT CAVOK 
     FM191400 VRB03KT CAVOK 
     FM200700 25010KT CAVOK
       
YPJT 190530Z AUTO 26013KT 9999 // SCT115 31/21 Q1008 RF00.0/000.0
TAF YPJT 190439Z 1906/1924 24010KT CAVOK 
     FM191400 VRB05KT CAVOK
       
YPPD 190530Z AUTO 36012KT 9999 // NCD 38/21 Q1005 RF00.0/000.0
TAF YPPD 190504Z 1906/2006 33014KT CAVOK 
     FM191000 28006KT CAVOK 
     FM200300 02016KT CAVOK 
     PROB30 INTER 1906/1910 VRB25G40KT 2000 TSRA SCT070 FEW090CB
       
YBPN 190500Z AUTO 11011KT 9999 // SCT120 31/24 Q1009
YSRI 190530Z AUTO 30003KT 9999 // SCT038 BKN058 23/19 Q1011
TAF YSRI 190506Z 1906/2006 17010KT 9999 -SHRA SCT020 BKN030 
     FM190900 VRB03KT 9999 -SHRA SCT010 BKN020 
     FM200000 17012KT 9999 -SHRA SCT015 BKN025 INTER 1906/1924 4000 SHRA BKN010 
     PROB30 INTER 1906/1910 VRB15G25KT 2000 TSRA BKN010 SCT040CB
       
YRMD 190300Z AUTO 14008KT 100V160 9999 // NCD 35/19 Q1009
YBRK 190536Z 12016G31KT 9999 4000E TSRA SCT030CB SCT050 27/19 Q1009
TAF YBRK 190529Z 1906/2006 07008KT 9999 SCT030 
     FM191000 04005KT 9999 SCT015 
     FM191400 VRB03KT 9999 MIFG SCT015 
     FM192200 19004KT 9999 SCT020 
     FM200200 04011KT 9999 SCT040 
     PROB30 
     TEMPO 1906/1909 VRB20G40KT 2000 TSRA BKN010 SCT030CB
       
YSSY 190530Z 17011KT 9999 VCSH FEW020 SCT027 24/18 Q1011 NOSIG
TAF AMD YSSY 190510Z 1906/2012 15012KT 9999 -SHRA SCT020 
     FM191200 23010KT 9999 -SHRA SCT020 
     FM200100 17015KT 9999 -SHRA SCT025 INTER 1920/2012 5000 SHRA BKN015
       
YSTW 190530Z AUTO 16008KT 160V220 9999 // SCT063 BKN076 27/11 Q1011
TAF YSTW 190500Z 1906/1924 18010KT CAVOK 
     FM191100 14006KT CAVOK
       
YTRE 190500Z AUTO 14012KT 9999 // BKN099 24/17 Q1010
TAF YTRE 190042Z 1902/1914 21007KT 9999 -SHRA SCT020 SCT050 
     FM190300 16010KT 9999 -SHRA SCT015 BKN050 
     FM190900 VRB03KT 9999 -SHRA SCT010 
     PROB30 
     TEMPO 1903/1908 VRB20G30KT 2000 TSRA SCT015 SCT050CB
       
YTEF 190500Z AUTO 33005KT 280V020 9999 // SCT100 39/13 Q1007
YTNK 190500Z AUTO 10015KT 090V150 9999 // NCD 39/M01 Q1008
TAF YTNK 190057Z 1902/1914 10014KT CAVOK 
     FM190900 11006KT CAVOK
       
YPTN 190530Z 28005KT 210V350 CAVOK 36/20 Q1005 NOSIG RMK USE TAF AFTER 0630Z
TAF YPTN 190523Z 1906/2006 25005KT 9999 SCT045 
     FM191000 31005KT CAVOK 
     FM200100 22005KT 9999 SCT030 
     PROB30 INTER 1907/1910 VRB25G40KT 1000 TSRA BKN010 SCT040CB
       
YBTL 190530Z 21004KT 9999 -RA FEW006 BKN110 26/24 Q1009 NOSIG
TAF AMD YBTL 190500Z 1905/2006 06014KT 9999 -SHRA FEW010 SCT025 SCT050 
     FM191000 12008KT 9999 -SHRA FEW006 SCT018 BKN040 INTER 1910/2006 4000 SHRA
BKN015 
     PROB30 INTER 2001/2006 1000 TSRA BKN012 FEW025CB
       
YSWG 190500Z AUTO 31004KT 290V020 9999 // BKN115 31/12 Q1011
YWGT 190500Z AUTO 25005KT 9999 // ////// 31/10 Q1011
TAF YWGT 190102Z 1902/1914 22006KT 9000 FU NSC 
     FM191000 16005KT 8000 FU NSC
       
YBWP 190500Z AUTO 25006KT 9999 // SCT033 BKN039 BKN110 29/24 Q1001
YWHA 190500Z AUTO 16016KT 9999 // NCD 25/17 Q1013
YWLM 190530Z 14008KT 9999 FEW035 25/17 Q1011 INTER 0630/0700 5000 SHRA SCT015
TAF AMD YWLM 190507Z 1906/2006 16010KT 9999 -SHRA SCT025 
     FM190900 25005KT 9999 -SHRA SCT010 BKN020 
     FM200000 17014KT 9999 -SHRA SCT015 BKN025 INTER 1906/1924 5000 SHRA BKN014 
     PROB30 1917/1921 3000 BR SCT003
       
YPWR 190530Z AUTO 22011KT 9999 // NCD 33/11 Q1012 RF00.0/000.0
TAF YPWR 190457Z 1906/1924 21012KT CAVOK 
     FM191200 15008KT CAVOK 
     FM192200 15012KT CAVOK